Time;durP1;ratioP1;P1;durP2;ratioP2;P2;SDS_P1;SDS_P2;PMS_P1;PMS_P2;Temp;Humidity;BMP_temperature;BMP_pressure;BME280_temperature;BME280_humidity;BME280_pressure;Samples;Min_cycle;Max_cycle;Signal;HPM_P1;HPM_P2
2022/01/20 00:02:25;;;;;;;;;;;;;;;0.05;62.43;100035.44;4452523;32;34016;-86
2022/01/20 00:05:08;;;;;;;;;;;;;;;0.17;62.29;100034.97;4459482;32;34302;-85
2022/01/20 00:07:46;;;;;;;;;;;;;;;0.10;62.47;100033.03;4451889;32;34228;-86
2022/01/20 00:27:10;;;;;;;;;;;;;;;-0.02;62.59;100039.44;4456480;32;33713;-86
2022/01/20 00:30:08;;;;;;;;;;;;;;;-0.22;62.61;100036.22;4452948;32;34296;-86
2022/01/20 00:32:48;;;;;;;;;;;;;;;-0.20;62.58;100032.81;4456635;32;34272;-85
2022/01/20 00:35:22;;;;;;;;;;;;;;;-0.06;61.99;100019.75;4458749;32;34391;-86
2022/01/20 00:37:49;;;;;;;;;;;;;;;-0.07;61.88;100035.00;4448090;32;34180;-85
2022/01/20 00:40:21;;;;;;;;;;;;;;;-0.25;62.34;100045.41;4452111;32;34325;-85
2022/01/20 00:42:50;;;;;;;;;;;;;;;-0.51;62.71;100047.00;4448532;32;34489;-86
2022/01/20 00:45:22;;;;;;;;;;;;;;;-0.32;62.38;100043.44;4447870;32;33627;-86
2022/01/20 00:47:50;;;;;;;;;;;;;;;-0.33;62.38;100046.81;4453458;32;35094;-85
2022/01/20 00:50:19;;;;;;;;;;;;;;;-0.39;62.45;100044.91;4453392;32;34075;-86
2022/01/20 00:52:47;;;;;;;;;;;;;;;-0.41;62.82;100048.22;4465240;32;34080;-86
2022/01/20 00:55:16;;;;;;;;;;;;;;;-0.33;62.33;100046.81;4455411;32;34569;-86
2022/01/20 00:57:44;;;;;;;;;;;;;;;-0.49;63.04;100048.78;4450831;32;34085;-86
2022/01/20 01:00:15;;;;;;;;;;;;;;;-0.38;62.96;100046.66;4458462;32;34769;-86
2022/01/20 01:02:45;;;;;;;;;;;;;;;-0.28;62.59;100050.41;4462839;32;33354;-86
2022/01/20 01:05:14;;;;;;;;;;;;;;;-0.50;62.88;100051.31;4460584;32;34702;-86
2022/01/20 01:07:47;;;;;;;;;;;;;;;-0.46;62.74;100051.47;4451970;32;34296;-85
2022/01/20 01:10:17;;;;;;;;;;;;;;;-0.38;62.64;100053.44;4448257;32;34049;-85
2022/01/20 01:12:50;;;;;;;;;;;;;;;-0.29;62.19;100053.75;4448126;32;33020;-86
2022/01/20 01:15:22;;;;;;;;;;;;;;;-0.51;62.89;100050.44;4461749;32;34150;-86
2022/01/20 01:21:08;;;;;;;;;;;;;;;-0.48;63.14;100048.00;4451589;32;34821;-86
2022/01/20 01:23:36;;;;;;;;;;;;;;;-0.51;63.35;100053.00;4448355;32;34022;-86
2022/01/20 01:26:05;;;;;;;;;;;;;;;-0.52;63.65;100047.84;4454233;32;33904;-86
2022/01/20 01:28:34;;;;;;;;;;;;;;;-0.33;63.38;100045.13;4455885;32;34092;-86
2022/01/20 01:31:29;;;;;;;;;;;;;;;-0.47;64.26;100031.03;4453938;32;34067;-85
2022/01/20 01:34:02;;;;;;;;;;;;;;;-0.29;64.18;100038.47;4462937;32;32887;-86
2022/01/20 01:36:44;;;;;;;;;;;;;;;-0.18;64.33;100015.91;4457797;32;34269;-85
2022/01/20 01:39:14;;;;;;;;;;;;;;;-0.16;64.72;100015.16;4452171;32;33666;-86
2022/01/20 01:41:44;;;;;;;;;;;;;;;-0.17;65.15;100004.88;4454257;32;33700;-86
2022/01/20 01:44:20;;;;;;;;;;;;;;;-0.18;65.86;100008.25;4450914;32;33015;-85
2022/01/20 01:46:50;;;;;;;;;;;;;;;0.01;65.32;100013.19;4453436;32;34205;-86
2022/01/20 01:49:21;;;;;;;;;;;;;;;-0.32;66.67;99997.56;4454483;32;34364;-85
2022/01/20 01:51:50;;;;;;;;;;;;;;;0.04;66.40;99981.81;4456539;32;34889;-86
2022/01/20 01:54:19;;;;;;;;;;;;;;;0.17;66.24;99974.62;4458327;32;32972;-86
2022/01/20 01:56:48;;;;;;;;;;;;;;;0.40;65.25;99987.25;4457184;32;33697;-86
2022/01/20 01:59:21;;;;;;;;;;;;;;;0.42;65.68;99978.81;4453190;32;34547;-86
2022/01/20 02:01:49;;;;;;;;;;;;;;;0.76;64.48;99971.37;4455526;32;34093;-86
2022/01/20 02:04:21;;;;;;;;;;;;;;;0.67;65.00;99951.50;4455815;32;34056;-86
2022/01/20 02:07:18;;;;;;;;;;;;;;;0.62;65.45;99966.69;4458325;32;34739;-86
2022/01/20 02:18:36;;;;;;;;;;;;;;;0.89;65.34;99931.72;4435692;32;33592;-86
2022/01/20 02:21:09;;;;;;;;;;;;;;;0.89;65.44;99911.31;4440382;32;32416;-86
2022/01/20 02:23:38;;;;;;;;;;;;;;;1.00;65.08;99923.56;4425951;32;32710;-86
2022/01/20 02:26:07;;;;;;;;;;;;;;;0.89;65.24;99912.16;4441613;32;33310;-86
2022/01/20 02:28:35;;;;;;;;;;;;;;;1.16;64.19;99909.56;4445269;32;33595;-86
2022/01/20 02:31:04;;;;;;;;;;;;;;;1.22;64.08;99903.75;4430651;32;35029;-86
2022/01/20 02:33:35;;;;;;;;;;;;;;;1.17;63.82;99905.31;4433455;32;33495;-86
2022/01/20 02:36:06;;;;;;;;;;;;;;;1.14;64.28;99900.97;4445198;32;33691;-87
2022/01/20 02:38:40;;;;;;;;;;;;;;;0.79;65.48;99903.38;4433567;32;33132;-86
2022/01/20 02:46:44;;;;;;;;;;;;;;;1.13;64.10;99901.78;4436093;32;33636;-86
2022/01/20 02:49:16;;;;;;;;;;;;;;;1.23;63.89;99896.13;4444548;32;34108;-86
2022/01/20 02:51:48;;;;;;;;;;;;;;;1.13;63.50;99881.34;4463926;32;34210;-86
2022/01/20 02:54:18;;;;;;;;;;;;;;;1.45;61.04;99889.00;4454003;32;33875;-86
2022/01/20 02:56:46;;;;;;;;;;;;;;;0.95;62.70;99889.38;4451247;32;33269;-86
2022/01/20 02:59:15;;;;;;;;;;;;;;;1.14;61.38;99892.44;4457238;32;35735;-87
2022/01/20 03:01:44;;;;;;;;;;;;;;;0.75;62.43;99886.25;4451992;32;33970;-86
2022/01/20 03:04:12;;;;;;;;;;;;;;;0.75;61.98;99887.91;4457364;32;34309;-86
2022/01/20 03:06:42;;;;;;;;;;;;;;;0.51;62.84;99875.28;4453471;32;33371;-86
2022/01/20 03:09:11;;;;;;;;;;;;;;;0.94;61.02;99879.09;4449416;32;34006;-86
2022/01/20 03:11:41;;;;;;;;;;;;;;;0.42;62.46;99858.88;4453299;32;34166;-86
2022/01/20 03:14:11;;;;;;;;;;;;;;;0.40;62.75;99860.50;4447465;32;33417;-86
2022/01/20 03:16:39;;;;;;;;;;;;;;;0.73;61.75;99853.81;4449524;32;33256;-86
2022/01/20 03:19:08;;;;;;;;;;;;;;;0.37;62.91;99857.00;4455120;32;34097;-87
2022/01/20 03:21:36;;;;;;;;;;;;;;;0.70;61.31;99854.59;4463651;32;35136;-86
2022/01/20 03:24:05;;;;;;;;;;;;;;;0.06;63.25;99857.75;4464942;32;34134;-86
2022/01/20 03:26:33;;;;;;;;;;;;;;;0.29;63.05;99846.56;4447500;32;32363;-86
2022/01/20 03:29:03;;;;;;;;;;;;;;;0.02;63.52;99840.59;4446925;32;35239;-86
2022/01/20 03:31:33;;;;;;;;;;;;;;;-0.03;63.82;99841.31;4451536;32;33156;-87
2022/01/20 03:34:01;;;;;;;;;;;;;;;-0.12;63.69;99832.50;4455504;32;34059;-86
2022/01/20 03:36:35;;;;;;;;;;;;;;;0.01;63.58;99833.78;4451934;32;34190;-86
2022/01/20 03:39:05;;;;;;;;;;;;;;;0.15;62.30;99835.09;4457755;32;34167;-86
2022/01/20 03:41:33;;;;;;;;;;;;;;;-0.08;63.34;99834.34;4450277;32;35024;-87
2022/01/20 03:44:07;;;;;;;;;;;;;;;-0.07;63.18;99826.75;4451993;32;33699;-86
2022/01/20 03:46:35;;;;;;;;;;;;;;;-0.12;63.29;99813.00;4457533;32;33316;-86
2022/01/20 03:49:09;;;;;;;;;;;;;;;-0.26;63.40;99819.34;4458840;32;34490;-86
2022/01/20 03:51:38;;;;;;;;;;;;;;;0.06;62.88;99819.50;4452762;32;35501;-85
2022/01/20 03:54:07;;;;;;;;;;;;;;;0.23;62.61;99820.88;4450047;32;35663;-86
2022/01/20 03:56:39;;;;;;;;;;;;;;;0.25;62.96;99819.22;4449710;32;33960;-85
2022/01/20 03:59:10;;;;;;;;;;;;;;;-0.07;63.54;99811.47;4453915;32;34875;-85
2022/01/20 04:01:39;;;;;;;;;;;;;;;-0.17;63.84;99806.88;4460537;32;33856;-86
2022/01/20 04:04:09;;;;;;;;;;;;;;;-0.36;64.02;99802.87;4456508;32;34885;-85
2022/01/20 04:06:37;;;;;;;;;;;;;;;-0.32;63.99;99804.69;4447956;32;33028;-85
2022/01/20 04:09:06;;;;;;;;;;;;;;;-0.09;63.17;99807.12;4447477;32;34212;-85
2022/01/20 04:11:34;;;;;;;;;;;;;;;-0.17;62.92;99801.78;4447864;32;34056;-86
2022/01/20 04:14:03;;;;;;;;;;;;;;;-0.25;62.98;99805.75;4453216;32;33944;-85
2022/01/20 04:16:36;;;;;;;;;;;;;;;-0.27;62.90;99802.28;4448483;32;33410;-85
2022/01/20 04:19:07;;;;;;;;;;;;;;;-0.20;62.62;99804.22;4446209;32;32804;-86
2022/01/20 04:21:38;;;;;;;;;;;;;;;-0.58;63.75;99805.53;4458661;32;34017;-85
2022/01/20 04:24:07;;;;;;;;;;;;;;;-0.42;63.17;99802.66;4461436;32;32676;-85
2022/01/20 04:26:36;;;;;;;;;;;;;;;-0.39;63.13;99805.31;4459207;32;32283;-85
2022/01/20 04:29:05;;;;;;;;;;;;;;;-0.49;63.62;99808.38;4453024;32;34021;-85
2022/01/20 04:31:36;;;;;;;;;;;;;;;-0.47;63.97;99804.19;4447101;32;34010;-86
2022/01/20 04:34:05;;;;;;;;;;;;;;;-0.42;63.94;99807.75;4447242;32;34149;-85
2022/01/20 04:36:36;;;;;;;;;;;;;;;-0.37;63.59;99811.31;4447862;32;33401;-85
2022/01/20 04:39:06;;;;;;;;;;;;;;;-0.35;63.83;99813.94;4450593;32;34462;-85
2022/01/20 04:41:35;;;;;;;;;;;;;;;-0.36;64.01;99815.63;4452921;32;35050;-85
2022/01/20 04:44:06;;;;;;;;;;;;;;;-0.23;63.72;99825.37;4447834;32;34364;-86
2022/01/20 04:46:42;;;;;;;;;;;;;;;-0.43;63.83;99824.75;4452985;32;33977;-85
2022/01/20 04:57:02;;;;;;;;;;;;;;;-0.43;64.12;99827.28;4452604;32;34020;-85
2022/01/20 04:57:33;;;;;;;;;;;;;;;-0.04;63.42;99829.41;4461373;32;33704;-85
2022/01/20 05:00:01;;;;;;;;;;;;;;;-0.19;63.99;99834.03;4462871;32;34475;-85
2022/01/20 05:02:34;;;;;;;;;;;;;;;-0.39;64.60;99814.66;4448846;32;33711;-85
2022/01/20 05:05:03;;;;;;;;;;;;;;;-0.52;64.75;99811.69;4449545;32;34194;-85
2022/01/20 05:07:32;;;;;;;;;;;;;;;-0.41;64.47;99808.63;4452607;32;33090;-85
2022/01/20 05:10:00;;;;;;;;;;;;;;;-0.24;63.68;99804.97;4449090;32;33781;-85
2022/01/20 05:12:39;;;;;;;;;;;;;;;-0.25;63.55;99810.84;4451233;32;33662;-86
2022/01/20 05:15:08;;;;;;;;;;;;;;;-0.28;63.67;99811.63;4453834;32;34086;-85
2022/01/20 05:17:39;;;;;;;;;;;;;;;-0.55;64.22;99806.50;4457923;32;33094;-85
2022/01/20 05:20:08;;;;;;;;;;;;;;;-0.42;64.12;99802.66;4461560;32;34375;-85
2022/01/20 05:22:37;;;;;;;;;;;;;;;-0.52;63.91;99801.50;4457871;32;34941;-85
2022/01/20 05:25:07;;;;;;;;;;;;;;;-0.38;63.97;99816.41;4483174;32;33977;-85
2022/01/20 05:27:35;;;;;;;;;;;;;;;-0.51;64.34;99817.66;4470467;32;33343;-85
2022/01/20 05:30:04;;;;;;;;;;;;;;;-0.88;65.78;99816.41;4449440;32;33533;-84
2022/01/20 05:32:36;;;;;;;;;;;;;;;-0.75;65.07;99812.59;4462447;32;35038;-85
2022/01/20 05:35:07;;;;;;;;;;;;;;;-0.76;64.60;99801.53;4456569;32;34268;-85
2022/01/20 05:37:36;;;;;;;;;;;;;;;-0.66;64.45;99801.03;4455262;32;33887;-85
2022/01/20 05:40:05;;;;;;;;;;;;;;;-0.81;64.88;99804.75;4454557;32;34113;-85
2022/01/20 05:42:36;;;;;;;;;;;;;;;-0.82;64.58;99810.66;4452406;32;34309;-85
2022/01/20 05:45:05;;;;;;;;;;;;;;;-0.72;64.50;99797.44;4464490;32;33611;-85
2022/01/20 05:47:37;;;;;;;;;;;;;;;-0.80;64.69;99804.78;4447983;32;33025;-85
2022/01/20 05:50:12;;;;;;;;;;;;;;;-0.72;64.64;99798.31;4458390;32;32617;-85
2022/01/20 05:52:42;;;;;;;;;;;;;;;-0.80;64.95;99798.84;4452059;32;34811;-85
2022/01/20 05:55:11;;;;;;;;;;;;;;;-1.09;66.35;99799.59;4458153;32;32652;-85
2022/01/20 05:57:40;;;;;;;;;;;;;;;-0.80;65.61;99803.94;4453428;32;33126;-86
2022/01/20 06:00:10;;;;;;;;;;;;;;;-1.02;66.16;99805.75;4450846;32;34184;-86
2022/01/20 06:05:32;;;;;;;;;;;;;;;-0.47;65.64;99811.84;4451841;32;34701;-86
2022/01/20 06:08:01;;;;;;;;;;;;;;;-0.59;66.29;99814.00;4453728;32;33392;-86
2022/01/20 06:10:31;;;;;;;;;;;;;;;-0.93;67.34;99808.59;4460908;32;33770;-85
2022/01/20 06:13:00;;;;;;;;;;;;;;;-0.78;67.21;99797.22;4459398;32;33886;-86
2022/01/20 06:15:28;;;;;;;;;;;;;;;-0.64;66.69;99801.09;4451486;32;33722;-86
2022/01/20 06:17:57;;;;;;;;;;;;;;;-0.70;67.04;99798.31;4453518;32;33410;-85
2022/01/20 06:20:25;;;;;;;;;;;;;;;-0.57;66.36;99797.06;4455825;32;34693;-86
2022/01/20 06:22:55;;;;;;;;;;;;;;;-0.57;66.50;99792.84;4457577;32;33775;-86
2022/01/20 06:25:24;;;;;;;;;;;;;;;-0.30;65.92;99785.22;4449934;32;34064;-84
2022/01/20 06:27:53;;;;;;;;;;;;;;;-0.36;66.52;99790.13;4449427;32;33898;-84
2022/01/20 06:30:21;;;;;;;;;;;;;;;-0.12;66.36;99786.59;4459908;32;33494;-84
2022/01/20 06:32:50;;;;;;;;;;;;;;;0.06;66.25;99792.28;4460479;32;35440;-84
2022/01/20 06:35:20;;;;;;;;;;;;;;;0.26;66.53;99786.91;4453833;32;33999;-83
2022/01/20 06:37:49;;;;;;;;;;;;;;;0.30;66.44;99792.16;4458942;32;33284;-83
2022/01/20 06:40:19;;;;;;;;;;;;;;;0.39;65.85;99802.66;4454676;32;32157;-83
2022/01/20 06:42:48;;;;;;;;;;;;;;;0.48;65.81;99803.72;4455320;32;36649;-84
2022/01/20 06:45:17;;;;;;;;;;;;;;;0.47;65.89;99796.91;4454202;32;33750;-84
2022/01/20 06:47:46;;;;;;;;;;;;;;;0.31;66.98;99796.44;4460924;32;33368;-84
2022/01/20 06:50:15;;;;;;;;;;;;;;;0.62;66.55;99799.88;4453396;32;33374;-84
2022/01/20 06:52:44;;;;;;;;;;;;;;;0.79;66.15;99788.44;4453775;32;33924;-84
2022/01/20 06:55:15;;;;;;;;;;;;;;;0.55;67.56;99790.31;4448570;32;33052;-84
2022/01/20 06:57:45;;;;;;;;;;;;;;;0.88;66.85;99797.19;4447476;32;33316;-84
2022/01/20 07:00:15;;;;;;;;;;;;;;;0.96;66.88;99791.47;4448671;32;34412;-84
2022/01/20 07:02:45;;;;;;;;;;;;;;;0.91;67.09;99777.69;4467772;32;33468;-83
2022/01/20 07:05:16;;;;;;;;;;;;;;;1.13;66.65;99774.03;4463481;32;34217;-84
2022/01/20 07:07:45;;;;;;;;;;;;;;;1.17;66.61;99769.88;4462923;32;32764;-84
2022/01/20 07:10:19;;;;;;;;;;;;;;;1.47;65.59;99769.75;4460817;32;34047;-84
2022/01/20 07:12:50;;;;;;;;;;;;;;;1.20;66.29;99764.84;4461772;32;33672;-84
2022/01/20 07:15:19;;;;;;;;;;;;;;;1.61;65.37;99768.41;4463806;32;33594;-83
2022/01/20 07:17:47;;;;;;;;;;;;;;;1.49;65.90;99755.34;4469548;32;33482;-84
2022/01/20 07:20:17;;;;;;;;;;;;;;;1.42;66.50;99764.53;4461650;32;34592;-84
2022/01/20 07:22:46;;;;;;;;;;;;;;;1.57;66.14;99753.84;4449865;32;33256;-84
2022/01/20 07:25:15;;;;;;;;;;;;;;;2.08;64.34;99750.75;4479236;32;34755;-84
2022/01/20 07:27:45;;;;;;;;;;;;;;;1.90;65.10;99748.63;4482149;32;32755;-85
2022/01/20 07:30:30;;;;;;;;;;;;;;;1.96;65.08;99739.34;4469063;32;33462;-85
2022/01/20 07:33:02;;;;;;;;;;;;;;;1.93;65.04;99745.28;4458149;32;34658;-84
2022/01/20 07:35:35;;;;;;;;;;;;;;;2.02;65.06;99737.81;4463822;32;34615;-84
2022/01/20 07:38:04;;;;;;;;;;;;;;;2.01;65.34;99748.03;4451700;32;33153;-85
2022/01/20 07:40:32;;;;;;;;;;;;;;;2.26;63.96;99750.25;4445496;32;33292;-84
2022/01/20 07:43:01;;;;;;;;;;;;;;;2.57;62.90;99748.34;4453580;32;34268;-85
2022/01/20 07:45:35;;;;;;;;;;;;;;;2.21;63.93;99741.63;4447612;32;35455;-85
2022/01/20 07:48:06;;;;;;;;;;;;;;;2.09;64.38;99734.53;4456537;32;35181;-85
2022/01/20 07:50:35;;;;;;;;;;;;;;;2.29;64.43;99742.63;4448348;32;34799;-85
2022/01/20 07:53:03;;;;;;;;;;;;;;;2.21;64.89;99730.53;4447740;32;34537;-85
2022/01/20 07:55:32;;;;;;;;;;;;;;;2.34;64.84;99740.19;4452809;32;33802;-86
2022/01/20 07:58:01;;;;;;;;;;;;;;;2.83;63.19;99735.16;4446570;32;32792;-85
2022/01/20 08:00:30;;;;;;;;;;;;;;;3.04;61.54;99735.56;4453011;32;34118;-85
2022/01/20 08:03:00;;;;;;;;;;;;;;;2.89;62.22;99735.28;4455586;32;33678;-85
2022/01/20 08:05:30;;;;;;;;;;;;;;;2.84;62.66;99744.59;4455454;32;34102;-85
2022/01/20 08:07:59;;;;;;;;;;;;;;;3.05;61.78;99744.13;4455458;32;33178;-85
2022/01/20 08:10:27;;;;;;;;;;;;;;;3.16;61.22;99752.84;4459657;32;34124;-85
2022/01/20 08:12:56;;;;;;;;;;;;;;;3.12;61.52;99740.84;4455115;32;33480;-85
2022/01/20 08:15:24;;;;;;;;;;;;;;;2.96;62.67;99742.25;4453411;32;34236;-86
2022/01/20 08:17:55;;;;;;;;;;;;;;;3.10;62.53;99748.50;4447802;32;32302;-86
2022/01/20 08:20:25;;;;;;;;;;;;;;;3.25;62.39;99744.47;4447816;32;34016;-85
2022/01/20 08:22:55;;;;;;;;;;;;;;;3.39;62.32;99750.69;4457303;32;33930;-86
2022/01/20 08:25:25;;;;;;;;;;;;;;;3.71;60.89;99740.94;4460258;32;33570;-85
2022/01/20 08:27:54;;;;;;;;;;;;;;;3.61;61.19;99745.06;4448038;32;32479;-85
2022/01/20 08:30:24;;;;;;;;;;;;;;;3.46;61.65;99747.41;4446489;32;33534;-86
2022/01/20 08:32:52;;;;;;;;;;;;;;;3.84;60.17;99752.25;4451424;32;35121;-85
2022/01/20 08:35:23;;;;;;;;;;;;;;;3.79;60.25;99748.75;4468669;32;33292;-86
2022/01/20 08:37:54;;;;;;;;;;;;;;;3.54;61.10;99750.06;4463009;32;33476;-85
2022/01/20 08:40:24;;;;;;;;;;;;;;;3.85;59.91;99749.72;4463064;32;33792;-85
2022/01/20 08:42:53;;;;;;;;;;;;;;;3.51;61.44;99747.47;4461782;32;34925;-85
2022/01/20 08:45:22;;;;;;;;;;;;;;;3.35;61.72;99746.34;4446659;32;33194;-85
2022/01/20 08:47:54;;;;;;;;;;;;;;;3.84;60.90;99739.41;4449529;32;33202;-85
2022/01/20 08:50:27;;;;;;;;;;;;;;;3.45;61.90;99726.84;4463594;32;34879;-85
2022/01/20 08:52:57;;;;;;;;;;;;;;;3.73;61.45;99731.56;4452581;32;34741;-86
2022/01/20 08:55:27;;;;;;;;;;;;;;;4.06;60.01;99728.63;4452854;32;34319;-85
2022/01/20 08:57:58;;;;;;;;;;;;;;;3.90;59.93;99730.97;4460735;32;34185;-85
2022/01/20 09:00:27;;;;;;;;;;;;;;;3.78;60.77;99734.19;4454233;32;34055;-85
2022/01/20 09:02:56;;;;;;;;;;;;;;;3.62;61.59;99733.09;4456867;32;34087;-86
2022/01/20 09:05:26;;;;;;;;;;;;;;;3.90;60.31;99736.09;4457119;32;34900;-86
2022/01/20 09:07:55;;;;;;;;;;;;;;;3.88;61.09;99730.91;4451045;32;32997;-86
2022/01/20 09:10:25;;;;;;;;;;;;;;;3.97;60.44;99733.63;4452655;32;34791;-86
2022/01/20 09:15:41;;;;;;;;;;;;;;;4.22;59.38;99741.66;4463182;32;33839;-86
2022/01/20 09:18:10;;;;;;;;;;;;;;;4.07;60.70;99750.03;4469471;32;33274;-86
2022/01/20 09:20:39;;;;;;;;;;;;;;;4.34;59.65;99757.22;4462576;32;34222;-86
2022/01/20 09:23:08;;;;;;;;;;;;;;;4.15;60.18;99755.25;4454205;32;34144;-86
2022/01/20 09:25:40;;;;;;;;;;;;;;;4.28;60.06;99752.88;4449316;32;34899;-86
2022/01/20 09:28:09;;;;;;;;;;;;;;;4.20;60.30;99749.31;4446945;32;34640;-87
2022/01/20 09:30:40;;;;;;;;;;;;;;;4.26;60.37;99751.13;4453794;32;34050;-86
2022/01/20 09:33:13;;;;;;;;;;;;;;;4.43;60.06;99749.63;4450677;32;33950;-86
2022/01/20 09:35:43;;;;;;;;;;;;;;;4.49;59.94;99752.31;4455805;32;34074;-86
2022/01/20 09:38:13;;;;;;;;;;;;;;;4.58;59.81;99748.97;4448110;32;32603;-86
2022/01/20 09:40:44;;;;;;;;;;;;;;;4.66;59.22;99749.03;4448504;32;34806;-86
2022/01/20 09:43:14;;;;;;;;;;;;;;;4.83;58.79;99738.94;4448111;32;34212;-86
2022/01/20 09:45:45;;;;;;;;;;;;;;;4.86;59.00;99741.59;4464345;32;34711;-87
2022/01/20 09:48:15;;;;;;;;;;;;;;;4.78;59.44;99744.03;4456331;32;33783;-86
2022/01/20 09:50:46;;;;;;;;;;;;;;;4.90;59.39;99746.78;4454770;32;33953;-86
2022/01/20 09:53:17;;;;;;;;;;;;;;;4.84;59.98;99740.69;4447912;32;35164;-86
2022/01/20 09:55:48;;;;;;;;;;;;;;;4.88;60.18;99739.88;4448137;32;34156;-86
2022/01/20 09:58:17;;;;;;;;;;;;;;;5.20;58.93;99737.62;4467512;32;34858;-87
2022/01/20 10:00:46;;;;;;;;;;;;;;;5.38;57.72;99729.19;4464791;32;33871;-86
2022/01/20 10:03:16;;;;;;;;;;;;;;;5.17;58.36;99734.16;4450494;32;31630;-86
2022/01/20 10:05:47;;;;;;;;;;;;;;;4.94;59.62;99728.81;4450617;32;34544;-86
2022/01/20 10:08:17;;;;;;;;;;;;;;;5.11;59.57;99734.97;4458293;32;33061;-86
2022/01/20 10:10:51;;;;;;;;;;;;;;;5.03;59.57;99726.31;4448113;32;34866;-87
2022/01/20 10:13:20;;;;;;;;;;;;;;;4.61;61.16;99728.44;4457720;32;34764;-85
2022/01/20 10:15:58;;;;;;;;;;;;;;;4.48;62.24;99734.28;4453226;32;33637;-85
2022/01/20 10:18:29;;;;;;;;;;;;;;;4.74;62.51;99741.44;4459355;32;31987;-86
2022/01/20 10:20:59;;;;;;;;;;;;;;;4.36;64.58;99724.72;4448862;32;34449;-86
2022/01/20 10:23:36;;;;;;;;;;;;;;;4.53;65.38;99717.22;4449377;32;31958;-85
2022/01/20 10:26:11;;;;;;;;;;;;;;;4.55;66.57;99715.53;4452933;32;34474;-85
2022/01/20 10:28:47;;;;;;;;;;;;;;;4.65;67.05;99708.78;4459821;32;34065;-85
2022/01/20 10:31:16;;;;;;;;;;;;;;;4.75;66.60;99697.75;4456557;32;33993;-86
2022/01/20 10:33:46;;;;;;;;;;;;;;;4.73;67.38;99698.59;4452517;32;33993;-86
2022/01/20 10:36:14;;;;;;;;;;;;;;;4.75;67.26;99684.91;4449827;32;34183;-86
2022/01/20 10:38:50;;;;;;;;;;;;;;;4.71;68.15;99693.41;4457652;32;33600;-87
2022/01/20 10:41:33;;;;;;;;;;;;;;;4.79;68.31;99696.94;4453237;32;34740;-87
2022/01/20 10:44:02;;;;;;;;;;;;;;;4.75;68.93;99692.62;4455056;32;34749;-87
2022/01/20 10:46:42;;;;;;;;;;;;;;;4.72;69.16;99686.59;4455767;32;33059;-87
2022/01/20 10:49:12;;;;;;;;;;;;;;;4.71;69.43;99683.16;4449954;32;33872;-87
2022/01/20 10:51:42;;;;;;;;;;;;;;;4.39;70.81;99675.09;4450514;32;31892;-87
2022/01/20 10:54:13;;;;;;;;;;;;;;;4.55;70.70;99673.56;4447783;32;34114;-87
2022/01/20 10:56:53;;;;;;;;;;;;;;;4.64;70.56;99669.38;4449597;32;35257;-87
2022/01/20 10:59:23;;;;;;;;;;;;;;;4.63;70.74;99654.81;4460778;32;31777;-89
2022/01/20 11:02:05;;;;;;;;;;;;;;;4.79;70.73;99647.25;4457490;32;33994;-89
2022/01/20 11:04:38;;;;;;;;;;;;;;;4.94;69.88;99646.53;4451563;32;34218;-88
2022/01/20 11:07:09;;;;;;;;;;;;;;;4.89;69.91;99633.66;4451480;32;33390;-88
2022/01/20 11:09:43;;;;;;;;;;;;;;;4.99;69.90;99626.87;4451230;32;33009;-88
2022/01/20 11:12:14;;;;;;;;;;;;;;;5.12;69.37;99619.28;4459878;32;34765;-88
2022/01/20 11:14:44;;;;;;;;;;;;;;;5.02;69.22;99620.03;4463788;32;35030;-88
2022/01/20 11:17:18;;;;;;;;;;;;;;;5.16;68.71;99622.72;4452749;32;34182;-88
2022/01/20 11:19:46;;;;;;;;;;;;;;;5.21;68.19;99621.03;4457944;32;34567;-88
2022/01/20 11:22:15;;;;;;;;;;;;;;;4.96;68.87;99622.56;4461320;32;33939;-88
2022/01/20 11:24:56;;;;;;;;;;;;;;;5.22;68.05;99627.03;4460304;32;35261;-88
2022/01/20 11:27:35;;;;;;;;;;;;;;;5.24;67.75;99620.19;4463834;32;34218;-88
2022/01/20 11:30:13;;;;;;;;;;;;;;;5.41;67.37;99623.75;4467070;32;33347;-87
2022/01/20 11:32:42;;;;;;;;;;;;;;;5.61;66.02;99616.16;4448574;32;33623;-88
2022/01/20 11:35:11;;;;;;;;;;;;;;;5.62;65.90;99599.84;4452554;32;35210;-88
2022/01/20 11:37:40;;;;;;;;;;;;;;;5.37;66.28;99580.84;4464176;32;33725;-88
2022/01/20 11:40:11;;;;;;;;;;;;;;;5.23;66.84;99565.34;4463980;32;33528;-88
2022/01/20 11:42:41;;;;;;;;;;;;;;;5.45;65.58;99568.88;4464794;32;34615;-88
2022/01/20 11:45:23;;;;;;;;;;;;;;;5.54;65.27;99560.38;4468025;32;35488;-88
2022/01/20 11:47:51;;;;;;;;;;;;;;;5.65;64.82;99553.53;4462048;32;34299;-88
2022/01/20 11:50:20;;;;;;;;;;;;;;;5.88;64.31;99551.06;4462462;32;33333;-88
2022/01/20 11:52:49;;;;;;;;;;;;;;;6.04;63.21;99554.59;4462452;32;33989;-88
2022/01/20 11:55:29;;;;;;;;;;;;;;;5.96;63.36;99553.69;4462851;32;35102;-88
2022/01/20 11:57:59;;;;;;;;;;;;;;;6.07;62.86;99546.03;4466314;32;34169;-88
2022/01/20 12:00:29;;;;;;;;;;;;;;;6.03;62.95;99546.88;4460992;32;34019;-88
2022/01/20 12:02:58;;;;;;;;;;;;;;;6.25;62.53;99542.63;4453500;32;35378;-88
2022/01/20 12:05:32;;;;;;;;;;;;;;;6.22;62.61;99535.75;4461712;32;33363;-88
2022/01/20 12:08:09;;;;;;;;;;;;;;;6.16;62.33;99525.41;4460882;32;34234;-89
2022/01/20 12:10:43;;;;;;;;;;;;;;;6.18;62.05;99532.28;4459723;32;34079;-89
2022/01/20 12:13:16;;;;;;;;;;;;;;;6.16;62.71;99522.84;4467462;32;33653;-89
2022/01/20 12:15:49;;;;;;;;;;;;;;;6.33;61.52;99521.19;4468930;32;33827;-88
2022/01/20 12:18:18;;;;;;;;;;;;;;;6.20;61.67;99522.84;4455084;32;34924;-88
2022/01/20 12:20:47;;;;;;;;;;;;;;;6.09;61.46;99519.41;4454962;32;33534;-88
2022/01/20 12:23:16;;;;;;;;;;;;;;;6.11;61.56;99515.13;4454739;32;33752;-88
2022/01/20 12:25:46;;;;;;;;;;;;;;;6.25;60.86;99511.69;4451564;32;34390;-89
2022/01/20 12:28:17;;;;;;;;;;;;;;;6.27;60.01;99521.16;4450974;32;34743;-90
2022/01/20 12:30:48;;;;;;;;;;;;;;;6.32;59.69;99523.75;4454364;32;33684;-89
2022/01/20 12:33:40;;;;;;;;;;;;;;;6.46;59.02;99495.41;4448657;32;36544;-90
2022/01/20 12:36:12;;;;;;;;;;;;;;;6.12;59.18;99495.38;4446935;32;34630;-89
2022/01/20 12:38:40;;;;;;;;;;;;;;;6.27;58.59;99494.53;4449889;32;33870;-89
2022/01/20 12:41:10;;;;;;;;;;;;;;;6.40;57.89;99491.09;4452645;32;33557;-89
2022/01/20 12:43:42;;;;;;;;;;;;;;;6.43;58.26;99487.66;4451826;32;33191;-89
2022/01/20 12:46:12;;;;;;;;;;;;;;;6.52;57.68;99492.81;4452234;32;35090;-89
2022/01/20 12:48:50;;;;;;;;;;;;;;;6.34;58.33;99485.97;4445252;32;34013;-89
2022/01/20 12:51:19;;;;;;;;;;;;;;;6.39;57.85;99490.25;4445726;32;33900;-88
2022/01/20 12:53:55;;;;;;;;;;;;;;;6.36;57.82;99473.94;4451349;32;34121;-89
2022/01/20 12:56:29;;;;;;;;;;;;;;;6.17;58.43;99467.91;4456691;32;33766;-89
2022/01/20 12:58:59;;;;;;;;;;;;;;;6.20;58.29;99470.47;4455852;32;34676;-89
2022/01/20 13:01:37;;;;;;;;;;;;;;;6.38;57.72;99461.91;4449636;32;34267;-89
2022/01/20 13:04:06;;;;;;;;;;;;;;;6.14;58.08;99460.19;4452602;32;34141;-89
2022/01/20 13:06:35;;;;;;;;;;;;;;;6.14;58.12;99462.75;4447632;32;34949;-89
2022/01/20 13:09:07;;;;;;;;;;;;;;;6.09;58.00;99449.88;4459082;32;34063;-89
2022/01/20 13:11:40;;;;;;;;;;;;;;;6.14;57.79;99452.47;4446563;32;34968;-89
2022/01/20 13:14:10;;;;;;;;;;;;;;;6.33;57.16;99437.84;4452477;32;33305;-89
2022/01/20 13:16:49;;;;;;;;;;;;;;;5.91;58.05;99440.38;4456167;32;34567;-89
2022/01/20 13:19:18;;;;;;;;;;;;;;;6.02;57.67;99455.00;4461632;32;34291;-89
2022/01/20 13:21:53;;;;;;;;;;;;;;;6.10;57.36;99443.88;4453154;32;33382;-90
2022/01/20 13:24:27;;;;;;;;;;;;;;;6.36;56.85;99448.19;4466247;32;33818;-89
2022/01/20 13:26:57;;;;;;;;;;;;;;;6.33;56.25;99437.84;4448050;32;35641;-89
2022/01/20 13:29:27;;;;;;;;;;;;;;;6.25;56.00;99429.28;4464389;32;33717;-89
2022/01/20 13:31:57;;;;;;;;;;;;;;;6.28;55.39;99408.66;4453312;32;32926;-90
2022/01/20 13:34:25;;;;;;;;;;;;;;;6.23;55.30;99411.22;4453945;32;34202;-89
2022/01/20 13:36:56;;;;;;;;;;;;;;;6.36;54.96;99417.25;4460465;32;34619;-89
2022/01/20 13:39:29;;;;;;;;;;;;;;;6.36;54.68;99412.97;4465326;32;33804;-89
2022/01/20 13:42:05;;;;;;;;;;;;;;;6.48;54.65;99417.25;4447677;32;33588;-89
2022/01/20 13:47:22;;;;;;;;;;;;;;;6.19;55.23;99430.13;4449022;32;35096;-88
2022/01/20 13:49:51;;;;;;;;;;;;;;;6.33;55.15;99431.00;4447218;32;34558;-88
2022/01/20 13:52:20;;;;;;;;;;;;;;;6.43;54.94;99418.97;4447560;32;33687;-88
2022/01/20 13:54:50;;;;;;;;;;;;;;;6.42;55.04;99417.25;4454280;32;33870;-89
2022/01/20 13:57:38;;;;;;;;;;;;;;;6.65;54.64;99400.91;4457935;32;34928;-88
2022/01/20 14:00:10;;;;;;;;;;;;;;;6.37;54.23;99404.34;4449113;32;34413;-88
2022/01/20 14:02:39;;;;;;;;;;;;;;;6.43;54.07;99400.94;4453891;32;33388;-88